Time;durP1;ratioP1;P1;durP2;ratioP2;P2;SDS_P1;SDS_P2;PMS_P1;PMS_P2;Temp;Humidity;BMP_temperature;BMP_pressure;BME280_temperature;BME280_humidity;BME280_pressure;Samples;Min_cycle;Max_cycle;Signal;HPM_P1;HPM_P2
2022/07/26 00:02:23;;;;;;;;;1.00;1.00;;;;;21.02;54.06;101100.19;5053754;28;45375;-61
2022/07/26 00:04:48;;;;;;;;;1.25;1.25;;;;;21.01;54.19;101109.31;5038330;28;45839;-59
2022/07/26 00:07:26;;;;;;;;;2.67;2.00;;;;;20.98;54.38;101105.03;5038753;28;46464;-61
2022/07/26 00:09:51;;;;;;;;;2.00;2.00;;;;;20.91;54.90;101101.16;5035805;28;45344;-61
2022/07/26 00:12:23;;;;;;;;;0.67;0.67;;;;;20.91;54.82;101104.72;5071048;27;45372;-60
2022/07/26 00:14:58;;;;;;;;;2.00;2.00;;;;;20.92;54.45;101102.88;5039020;28;45760;-60
2022/07/26 00:17:24;;;;;;;;;1.33;1.33;;;;;20.87;54.81;101102.47;5038226;28;47077;-60
2022/07/26 00:20:04;;;;;;;;;2.00;2.00;;;;;20.88;54.66;101109.56;5045212;28;45375;-60
2022/07/26 00:22:57;;;;;;;;;1.00;1.00;;;;;20.85;55.79;101105.31;5057691;28;45344;-60
2022/07/26 00:25:23;;;;;;;;;2.33;2.00;;;;;20.84;55.58;101108.16;5057363;28;45338;-60
2022/07/26 00:27:51;;;;;;;;;3.00;2.00;;;;;20.84;55.44;101111.72;5057632;28;46146;-60
2022/07/26 00:30:17;;;;;;;;;1.67;1.67;;;;;20.84;54.85;101102.75;5057454;28;45326;-62
2022/07/26 00:32:43;;;;;;;;;2.33;2.00;;;;;20.81;55.20;101108.41;5057734;28;45363;-62
2022/07/26 00:35:09;;;;;;;;;1.00;1.00;;;;;20.68;55.14;101102.41;5057214;28;45621;-60
2022/07/26 00:37:38;;;;;;;;;2.67;2.67;;;;;20.76;55.14;101107.97;5057098;28;45416;-61
2022/07/26 00:40:05;;;;;;;;;2.67;2.67;;;;;20.73;55.50;101110.97;5056819;28;45270;-61
2022/07/26 00:42:31;;;;;;;;;2.33;1.00;;;;;20.70;55.64;101111.22;5057056;28;45391;-61
2022/07/26 00:44:59;;;;;;;;;5.00;1.00;;;;;20.73;55.34;101105.56;5058210;28;45476;-61
2022/07/26 00:47:33;;;;;;;;;2.33;0.00;;;;;20.68;55.25;101105.09;5056307;28;45275;-61
2022/07/26 00:49:58;;;;;;;;;3.00;1.00;;;;;20.64;55.54;101107.25;5057905;28;45325;-61
2022/07/26 00:52:24;;;;;;;;;1.00;0.67;;;;;20.50;55.65;101089.56;5054581;28;45344;-61
2022/07/26 00:54:53;;;;;;;;;0.67;0.67;;;;;20.56;55.28;101107.91;5056505;28;45516;-61
2022/07/26 00:57:20;;;;;;;;;1.00;1.00;;;;;20.56;56.06;101105.22;5056655;28;47225;-62
2022/07/26 00:59:46;;;;;;;;;1.00;1.00;;;;;20.51;56.12;101101.22;5055752;28;45465;-61
2022/07/26 01:02:11;;;;;;;;;1.00;1.00;;;;;20.51;56.08;101096.69;5056162;28;45394;-60
2022/07/26 01:04:37;;;;;;;;;1.00;1.00;;;;;20.47;55.42;101095.25;5050188;28;45400;-62
2022/07/26 01:07:03;;;;;;;;;1.67;1.00;;;;;20.43;55.26;101087.53;5035603;28;46174;-62
2022/07/26 01:09:29;;;;;;;;;1.00;1.00;;;;;20.38;55.46;101095.19;5038754;28;45504;-62
2022/07/26 01:11:54;;;;;;;;;1.33;0.33;;;;;20.34;55.78;101094.59;5036242;28;45359;-61
2022/07/26 01:14:21;;;;;;;;;2.00;0.67;;;;;20.30;55.74;101087.75;5035880;28;45531;-62
2022/07/26 01:16:47;;;;;;;;;0.00;0.00;;;;;20.25;56.30;101087.31;5050735;28;47575;-63
2022/07/26 01:19:13;;;;;;;;;1.00;1.00;;;;;20.23;56.17;101084.75;5039097;28;45514;-62
2022/07/26 01:21:39;;;;;;;;;1.00;1.00;;;;;20.27;56.08;101093.44;5055369;28;45391;-60
2022/07/26 01:24:05;;;;;;;;;3.33;1.00;;;;;20.22;56.19;101088.44;5055363;28;45580;-61
2022/07/26 01:26:31;;;;;;;;;0.00;0.00;;;;;20.17;56.52;101085.28;5055118;28;45476;-62
2022/07/26 01:28:57;;;;;;;;;5.67;1.00;;;;;20.11;56.52;101080.44;5044061;28;45370;-60
2022/07/26 01:31:22;;;;;;;;;1.00;1.00;;;;;20.18;55.79;101096.94;5036431;28;45501;-60
2022/07/26 01:33:49;;;;;;;;;1.00;1.00;;;;;20.07;55.90;101086.25;5038810;28;45347;-61
2022/07/26 01:36:14;;;;;;;;;0.33;0.33;;;;;20.07;56.03;101089.81;5038416;28;46509;-61
2022/07/26 01:38:40;;;;;;;;;0.67;0.67;;;;;20.01;56.60;101087.63;5038370;28;45292;-61
2022/07/26 01:41:06;;;;;;;;;1.00;1.00;;;;;20.00;56.45;101086.78;5070788;28;45352;-63
2022/07/26 01:43:31;;;;;;;;;1.00;1.00;;;;;20.01;56.97;101083.09;5038835;28;45320;-62
2022/07/26 01:45:57;;;;;;;;;2.00;2.00;;;;;19.96;56.82;101089.91;5052088;28;46998;-61
2022/07/26 01:48:22;;;;;;;;;2.67;2.00;;;;;19.90;56.85;101080.47;5057654;28;45409;-62
2022/07/26 01:50:48;;;;;;;;;1.00;0.00;;;;;19.89;57.17;101086.84;5057110;28;45352;-59
2022/07/26 01:53:13;;;;;;;;;2.00;2.00;;;;;19.89;56.97;101089.56;5058467;28;45394;-61
2022/07/26 01:55:38;;;;;;;;;1.00;1.00;;;;;19.87;57.57;101090.69;5057851;28;46000;-60
2022/07/26 01:58:05;;;;;;;;;1.33;0.33;;;;;19.83;57.51;101079.31;5054218;28;45515;-62
2022/07/26 02:00:30;;;;;;;;;0.00;0.00;;;;;19.85;56.76;101087.28;5038405;28;45320;-62
2022/07/26 02:02:56;;;;;;;;;0.67;0.33;;;;;19.79;57.09;101077.84;5050509;28;45738;-61
2022/07/26 02:05:22;;;;;;;;;1.00;0.00;;;;;19.75;57.21;101071.00;5058457;28;46043;-61
2022/07/26 02:07:47;;;;;;;;;1.00;1.00;;;;;19.72;57.85;101069.44;5057481;28;45354;-60
2022/07/26 02:10:13;;;;;;;;;0.00;0.00;;;;;19.80;57.89;101087.69;5057901;28;45387;-59
2022/07/26 02:12:39;;;;;;;;;1.00;1.00;;;;;19.74;58.16;101091.75;5058103;28;45549;-63
2022/07/26 02:15:06;;;;;;;;;2.00;1.00;;;;;19.75;57.91;101087.22;5056565;28;47871;-62
2022/07/26 02:17:31;;;;;;;;;2.00;1.00;;;;;19.72;57.86;101098.28;5057971;28;45310;-62
2022/07/26 02:19:57;;;;;;;;;1.00;1.00;;;;;19.73;58.18;101090.03;5057017;28;45370;-60
2022/07/26 02:22:23;;;;;;;;;2.00;1.00;;;;;19.75;58.30;101098.00;5058595;28;45241;-61
2022/07/26 02:24:49;;;;;;;;;1.33;1.33;;;;;19.72;57.87;101090.19;5057983;28;46502;-60
2022/07/26 02:27:14;;;;;;;;;1.33;1.00;;;;;19.65;58.77;101080.88;5057757;28;45354;-63
2022/07/26 02:29:40;;;;;;;;;1.00;1.00;;;;;19.72;58.50;101092.88;5056991;28;45522;-60
2022/07/26 02:32:06;;;;;;;;;1.00;1.00;;;;;19.58;58.63;101075.19;5058150;28;45345;-62
2022/07/26 02:34:31;;;;;;;;;2.00;2.00;;;;;19.60;58.82;101080.44;5057617;28;45627;-61
2022/07/26 02:36:57;;;;;;;;;1.33;1.33;;;;;19.55;58.71;101080.00;5057736;28;45430;-60
2022/07/26 02:39:29;;;;;;;;;2.33;0.00;;;;;19.60;59.02;101093.94;5045491;28;45390;-61
2022/07/26 02:41:55;;;;;;;;;1.00;1.00;;;;;19.60;58.83;101093.94;5037969;28;45529;-61
2022/07/26 02:44:22;;;;;;;;;2.67;1.00;;;;;19.53;59.58;101081.91;5052290;28;45404;-61
2022/07/26 02:46:47;;;;;;;;;1.00;1.00;;;;;19.44;59.59;101075.47;5037137;28;45429;-61
2022/07/26 02:49:12;;;;;;;;;1.33;0.67;;;;;19.46;59.07;101076.19;5037655;28;45591;-64
2022/07/26 02:51:38;;;;;;;;;1.00;1.00;;;;;19.49;59.66;101091.25;5037806;28;45456;-63
2022/07/26 02:54:03;;;;;;;;;1.67;1.67;;;;;19.44;59.41;101092.53;5048993;28;45665;-61
2022/07/26 02:56:29;;;;;;;;;1.00;1.00;;;;;19.38;59.60;101082.25;5057692;28;45451;-61
2022/07/26 02:58:54;;;;;;;;;1.00;1.00;;;;;19.43;59.42;101088.13;5052290;28;45529;-61
2022/07/26 03:01:20;;;;;;;;;0.67;0.67;;;;;19.41;59.60;101100.88;5037729;28;45656;-63
2022/07/26 03:03:45;;;;;;;;;3.00;1.33;;;;;19.41;60.29;101100.88;5036923;28;46450;-59
2022/07/26 03:06:10;;;;;;;;;2.33;1.33;;;;;19.41;60.44;101106.28;5051768;28;45465;-61
2022/07/26 03:08:36;;;;;;;;;0.33;0.33;;;;;19.40;60.08;101099.16;5057564;28;45329;-60
2022/07/26 03:11:01;;;;;;;;;1.67;1.67;;;;;19.39;59.99;101100.13;5057397;28;45531;-62
2022/07/26 03:13:27;;;;;;;;;1.00;0.67;;;;;19.37;60.72;101096.72;5057276;28;46281;-61
2022/07/26 03:15:52;;;;;;;;;2.00;1.00;;;;;19.38;60.37;101111.06;5045783;28;45358;-61
2022/07/26 03:18:17;;;;;;;;;3.00;2.00;;;;;19.33;60.43;101105.19;5037002;28;45652;-62
2022/07/26 03:20:43;;;;;;;;;1.00;1.00;;;;;19.27;60.56;101103.91;5036105;28;45193;-62
2022/07/26 03:23:08;;;;;;;;;1.67;1.67;;;;;19.25;61.20;101095.06;5036592;28;46095;-60
2022/07/26 03:25:33;;;;;;;;;3.33;2.33;;;;;19.21;60.86;101093.59;5037074;28;45403;-60
2022/07/26 03:27:59;;;;;;;;;1.00;1.00;;;;;19.32;61.19;101115.13;5036944;28;45260;-61
2022/07/26 03:30:25;;;;;;;;;3.00;1.00;;;;;19.32;61.09;101112.44;5037216;28;45470;-61
2022/07/26 03:32:50;;;;;;;;;1.00;1.00;;;;;19.32;61.63;101112.44;5036770;28;47036;-60
2022/07/26 03:35:16;;;;;;;;;2.00;1.00;;;;;19.30;61.11;101114.41;5036617;28;45473;-60
2022/07/26 03:37:41;;;;;;;;;3.00;2.00;;;;;19.31;60.38;101110.72;5036706;28;45327;-62
2022/07/26 03:40:08;;;;;;;;;2.00;2.00;;;;;19.28;61.62;101108.31;5036854;28;45301;-60
2022/07/26 03:42:34;;;;;;;;;1.33;1.00;;;;;19.26;61.54;101109.38;5036534;28;46208;-60
2022/07/26 03:45:00;;;;;;;;;2.00;1.00;;;;;19.20;61.01;101108.06;5036573;28;45549;-60
2022/07/26 03:47:25;;;;;;;;;1.67;1.67;;;;;19.17;62.15;101105.66;5036913;28;45747;-61
2022/07/26 03:49:50;;;;;;;;;2.00;1.00;;;;;19.22;61.51;101116.03;5036550;28;45220;-61
2022/07/26 03:52:16;;;;;;;;;3.33;2.00;;;;;19.25;61.79;101127.41;5036398;28;45429;-60
2022/07/26 03:54:56;;;;;;;;;2.67;1.00;;;;;19.27;61.48;101129.97;5013284;28;45564;-61
2022/07/26 03:57:22;;;;;;;;;1.00;1.00;;;;;19.27;61.81;101120.06;5036513;28;45505;-61
2022/07/26 03:59:47;;;;;;;;;5.00;1.00;;;;;19.23;61.26;101115.03;5035241;28;45308;-60
2022/07/26 04:02:12;;;;;;;;;1.00;1.00;;;;;19.27;61.91;101124.59;5068425;28;47746;-60
2022/07/26 04:04:38;;;;;;;;;2.33;2.00;;;;;19.26;62.05;101121.03;5036401;28;45312;-61
2022/07/26 04:07:03;;;;;;;;;2.00;2.00;;;;;19.31;61.74;101123.38;5036473;28;45572;-60
2022/07/26 04:09:29;;;;;;;;;3.33;3.00;;;;;19.29;62.01;101119.94;5036876;28;45307;-61
2022/07/26 04:11:54;;;;;;;;;2.00;2.00;;;;;19.33;61.57;101127.63;5068288;28;46605;-60
2022/07/26 04:14:20;;;;;;;;;1.67;1.67;;;;;19.31;61.72;101126.06;5035899;28;45419;-60
2022/07/26 04:16:45;;;;;;;;;2.00;2.00;;;;;19.32;61.74;101122.38;5050658;28;45895;-59
2022/07/26 04:19:11;;;;;;;;;2.00;2.00;;;;;19.31;62.34;101132.31;5056258;28;45541;-61
2022/07/26 04:21:36;;;;;;;;;0.00;0.00;;;;;19.24;61.76;101112.22;5055983;28;45513;-60
2022/07/26 04:24:01;;;;;;;;;1.67;1.00;;;;;19.34;62.26;101125.78;5056074;28;45263;-62
2022/07/26 04:26:28;;;;;;;;;4.00;4.00;;;;;19.30;62.88;101114.41;5055332;28;45314;-62
2022/07/26 04:28:53;;;;;;;;;1.67;1.67;;;;;19.36;62.14;101121.97;5038448;28;45386;-62
2022/07/26 04:31:19;;;;;;;;;5.00;2.00;;;;;19.40;61.97;101123.44;5035752;28;46223;-62
2022/07/26 04:33:44;;;;;;;;;3.67;2.00;;;;;19.39;62.21;101124.41;5035887;28;45362;-61
2022/07/26 04:36:10;;;;;;;;;2.00;2.00;;;;;19.37;62.07;101115.59;5035659;28;45853;-67
2022/07/26 04:38:35;;;;;;;;;3.00;1.67;;;;;19.40;62.50;101123.44;5034800;28;45379;-61
2022/07/26 04:41:00;;;;;;;;;3.00;1.00;;;;;19.41;61.99;101121.59;5036377;28;45935;-60
2022/07/26 04:43:26;;;;;;;;;3.00;3.00;;;;;19.42;62.35;101126.00;5036331;28;45393;-61
2022/07/26 04:45:51;;;;;;;;;3.00;3.00;;;;;19.42;61.86;101129.56;5036296;28;45339;-60
2022/07/26 04:48:17;;;;;;;;;1.33;1.33;;;;;19.45;62.20;101129.28;5052075;28;45607;-60
2022/07/26 04:50:43;;;;;;;;;2.00;2.00;;;;;19.49;62.52;101139.81;5053452;28;46346;-60
2022/07/26 04:53:09;;;;;;;;;4.00;2.67;;;;;19.49;62.48;101137.13;5054442;28;45272;-62
2022/07/26 04:55:36;;;;;;;;;2.00;2.00;;;;;19.54;62.07;101148.41;5055878;27;45439;-60
2022/07/26 04:58:01;;;;;;;;;3.00;1.33;;;;;19.52;62.04;101140.41;5045127;28;45375;-62
2022/07/26 05:00:26;;;;;;;;;3.00;2.00;;;;;19.56;62.66;101146.44;5035506;28;46196;-61
2022/07/26 05:02:55;;;;;;;;;1.33;1.33;;;;;19.61;62.36;101144.22;5035495;28;45185;-61
2022/07/26 05:05:22;;;;;;;;;4.00;2.00;;;;;19.61;62.27;101149.59;5034827;28;45594;-62
2022/07/26 05:07:49;;;;;;;;;6.33;4.33;;;;;19.61;62.20;101141.50;5038110;28;45273;-63
2022/07/26 05:10:16;;;;;;;;;4.00;2.33;;;;;19.68;62.29;101157.06;5050316;28;45540;-60
2022/07/26 05:12:42;;;;;;;;;2.33;2.00;;;;;19.63;62.15;101140.38;5058824;28;45252;-61
2022/07/26 05:15:08;;;;;;;;;2.00;2.00;;;;;19.70;62.22;101157.78;5059020;28;45363;-61
2022/07/26 05:17:37;;;;;;;;;3.33;3.00;;;;;19.72;62.27;101157.63;5058178;28;45395;-60
2022/07/26 05:20:03;;;;;;;;;5.33;4.00;;;;;19.69;61.64;101141.72;5058529;28;45446;-61
2022/07/26 05:22:28;;;;;;;;;4.00;3.00;;;;;19.62;62.03;101129.72;5052861;28;45504;-62
2022/07/26 05:24:54;;;;;;;;;2.00;2.00;;;;;19.81;61.92;101161.41;5038781;28;45419;-61
2022/07/26 05:27:19;;;;;;;;;2.00;2.00;;;;;19.82;61.52;101168.50;5038994;28;45509;-60
2022/07/26 05:29:44;;;;;;;;;5.33;3.00;;;;;19.80;62.08;101160.56;5038650;28;46142;-61
2022/07/26 05:32:10;;;;;;;;;4.00;3.00;;;;;19.82;61.86;101172.06;5038306;28;45380;-61
2022/07/26 05:34:35;;;;;;;;;2.33;2.00;;;;;19.76;61.98;101164.47;5038623;28;46822;-61
2022/07/26 05:37:01;;;;;;;;;6.00;4.00;;;;;19.74;61.88;101147.56;5038805;28;45703;-62
2022/07/26 05:39:26;;;;;;;;;1.67;1.67;;;;;19.83;61.46;101165.69;5038406;28;45323;-63
2022/07/26 05:41:51;;;;;;;;;9.00;8.00;;;;;19.73;62.66;101159.34;5038517;28;45225;-63
2022/07/26 05:44:17;;;;;;;;;3.00;2.00;;;;;19.77;62.22;101166.19;5038816;28;45216;-62
2022/07/26 05:46:42;;;;;;;;;2.00;2.00;;;;;19.79;62.37;101166.91;5038945;28;45545;-61
2022/07/26 05:49:07;;;;;;;;;2.33;2.00;;;;;19.81;61.55;101156.00;5038230;28;45303;-61
2022/07/26 05:51:33;;;;;;;;;3.67;2.00;;;;;19.88;62.13;101171.53;5038564;28;45224;-60
2022/07/26 05:53:59;;;;;;;;;6.67;3.33;;;;;19.91;62.53;101167.69;5053744;28;45528;-61
2022/07/26 05:56:24;;;;;;;;;25.67;19.00;;;;;19.90;62.50;101166.84;5058641;28;45448;-60
2022/07/26 05:58:50;;;;;;;;;3.00;3.00;;;;;19.91;61.99;101167.69;5058042;28;45277;-60
2022/07/26 06:01:16;;;;;;;;;8.67;7.00;;;;;19.96;61.76;101173.56;5058100;28;45335;-62
2022/07/26 06:03:41;;;;;;;;;5.00;2.67;;;;;19.96;61.90;101177.13;5057257;28;45802;-60
2022/07/26 06:06:07;;;;;;;;;2.00;2.00;;;;;19.99;61.54;101179.56;5058687;28;45616;-60
2022/07/26 06:08:32;;;;;;;;;6.00;3.00;;;;;20.01;61.69;101174.03;5055686;28;46885;-59
2022/07/26 06:10:58;;;;;;;;;3.33;3.00;;;;;19.98;61.63;101169.75;5057914;28;45372;-61
2022/07/26 06:13:23;;;;;;;;;3.00;3.00;;;;;19.93;61.58;101172.00;5057203;28;45390;-59
2022/07/26 06:15:49;;;;;;;;;4.00;2.33;;;;;19.97;61.92;101178.84;5057146;28;45515;-61
2022/07/26 06:18:14;;;;;;;;;7.00;4.00;;;;;19.96;62.12;101178.97;5067814;27;46542;-60
2022/07/26 06:20:42;;;;;;;;;4.00;4.00;;;;;20.03;62.00;101188.25;5046428;28;45371;-59
2022/07/26 06:23:07;;;;;;;;;3.67;3.67;;;;;20.00;61.26;101189.38;5058459;28;45428;-58
2022/07/26 06:25:33;;;;;;;;;3.67;2.67;;;;;20.04;61.87;101196.22;5058490;28;45446;-59
2022/07/26 06:28:02;;;;;;;;;2.67;2.67;;;;;20.09;62.20;101194.97;5057997;28;46005;-64
2022/07/26 06:30:27;;;;;;;;;3.00;3.00;;;;;20.11;62.05;101184.91;5057871;28;45256;-59
2022/07/26 06:32:56;;;;;;;;;3.33;2.00;;;;;20.18;61.73;101194.16;5057577;28;45307;-61
2022/07/26 06:35:22;;;;;;;;;6.00;3.67;;;;;20.21;61.70;101191.22;5057977;28;45588;-62
2022/07/26 06:37:48;;;;;;;;;4.00;3.00;;;;;20.26;61.37;101192.50;5046025;28;47285;-60
2022/07/26 06:40:14;;;;;;;;;4.33;3.33;;;;;20.29;60.97;101189.53;5037691;28;45719;-61
2022/07/26 06:42:39;;;;;;;;;2.00;2.00;;;;;20.27;61.85;101196.06;5043606;28;45251;-60
2022/07/26 06:45:05;;;;;;;;;3.67;3.67;;;;;20.27;61.75;101185.25;5058112;28;45561;-60
2022/07/26 06:47:31;;;;;;;;;6.67;3.67;;;;;20.29;61.36;101192.25;5068449;28;47185;-62
2022/07/26 06:49:56;;;;;;;;;7.00;5.00;;;;;20.36;61.64;101203.38;5037011;28;45435;-62
2022/07/26 06:52:21;;;;;;;;;6.00;3.00;;;;;20.42;61.24;101200.16;5037802;28;45663;-63
2022/07/26 06:54:47;;;;;;;;;3.00;3.00;;;;;20.44;60.56;101205.41;5055194;28;45314;-61
2022/07/26 06:57:12;;;;;;;;;3.00;3.00;;;;;20.37;61.27;101202.38;5057038;28;46276;-59
2022/07/26 06:59:38;;;;;;;;;6.00;4.67;;;;;20.42;61.51;101200.16;5044334;28;45360;-60
2022/07/26 07:02:04;;;;;;;;;9.67;4.00;;;;;20.41;60.53;101206.53;5052090;28;45375;-59
2022/07/26 07:04:31;;;;;;;;;2.00;2.00;;;;;20.45;61.04;101209.88;5035602;28;45860;-59
2022/07/26 07:07:01;;;;;;;;;4.00;4.00;;;;;20.41;60.78;101209.22;5036811;28;45460;-61
2022/07/26 07:09:27;;;;;;;;;5.00;4.00;;;;;20.29;61.27;101186.84;5035474;28;46008;-61
2022/07/26 07:11:52;;;;;;;;;5.00;3.00;;;;;20.33;61.57;101211.75;5056941;28;45350;-61
2022/07/26 07:14:18;;;;;;;;;3.33;3.33;;;;;20.33;61.33;101206.34;5057113;28;45608;-61
2022/07/26 07:16:43;;;;;;;;;3.33;3.33;;;;;20.36;61.12;101207.94;5056830;28;45453;-61
2022/07/26 07:19:08;;;;;;;;;8.33;4.33;;;;;20.39;60.70;101207.66;5057654;28;45503;-61
2022/07/26 07:21:34;;;;;;;;;2.67;2.67;;;;;20.32;61.15;101204.66;5058689;28;45382;-59
2022/07/26 07:23:59;;;;;;;;;3.00;2.00;;;;;20.39;60.95;101213.91;5057016;28;45318;-58
2022/07/26 07:26:25;;;;;;;;;3.00;3.00;;;;;20.44;60.77;101214.38;5057604;28;46134;-60
2022/07/26 07:28:50;;;;;;;;;3.33;3.33;;;;;20.45;60.15;101215.28;5057051;28;45322;-60
2022/07/26 07:31:16;;;;;;;;;6.00;4.33;;;;;20.39;60.93;101210.34;5056427;28;45303;-60
2022/07/26 07:33:42;;;;;;;;;7.33;4.00;;;;;20.47;61.02;101213.28;5057206;27;45161;-59
2022/07/26 07:36:07;;;;;;;;;5.33;3.00;;;;;20.48;60.23;101215.84;5039866;28;46043;-59
2022/07/26 07:38:32;;;;;;;;;4.00;3.00;;;;;20.53;60.03;101205.47;5036550;28;45260;-60
2022/07/26 07:40:58;;;;;;;;;5.00;4.00;;;;;20.57;60.14;101215.03;5036785;28;45446;-59
2022/07/26 07:43:23;;;;;;;;;3.00;3.00;;;;;20.60;59.77;101214.75;5037062;28;45566;-58
2022/07/26 07:45:48;;;;;;;;;5.00;4.00;;;;;20.61;60.12;101213.78;5036342;28;45271;-62
2022/07/26 07:48:14;;;;;;;;;3.00;3.00;;;;;20.66;59.46;101209.78;5052283;28;45294;-59
2022/07/26 07:50:39;;;;;;;;;4.67;3.00;;;;;20.66;59.33;101217.91;5055975;28;45439;-60
2022/07/26 07:53:05;;;;;;;;;5.00;3.00;;;;;20.66;59.02;101207.09;5056863;28;45646;-60
2022/07/26 07:55:30;;;;;;;;;4.00;3.00;;;;;20.75;59.05;101212.53;5056641;28;45322;-58
2022/07/26 07:57:55;;;;;;;;;2.00;2.00;;;;;20.87;58.80;101216.00;5056428;28;45410;-60
2022/07/26 08:00:21;;;;;;;;;6.00;4.33;;;;;20.95;58.41;101213.44;5039716;28;45807;-59
2022/07/26 08:02:46;;;;;;;;;3.00;1.67;;;;;20.97;58.42;101219.59;5036514;28;45421;-60
2022/07/26 08:05:12;;;;;;;;;4.33;3.00;;;;;21.03;57.89;101216.34;5036443;28;45430;-63
2022/07/26 08:07:38;;;;;;;;;4.33;4.33;;;;;21.07;58.05;101212.34;5036069;28;45348;-59
2022/07/26 08:10:04;;;;;;;;;4.33;4.00;;;;;21.16;57.54;101213.38;5036268;28;45402;-59
2022/07/26 08:12:30;;;;;;;;;3.00;2.00;;;;;21.19;56.86;101213.09;5051995;28;45508;-65
2022/07/26 08:14:55;;;;;;;;;5.00;3.00;;;;;21.18;57.34;101208.66;5056120;28;45380;-60
2022/07/26 08:17:20;;;;;;;;;3.67;2.33;;;;;21.27;56.75;101217.84;5036192;28;45329;-58
2022/07/26 08:19:46;;;;;;;;;2.00;2.00;;;;;21.27;56.75;101217.84;5034835;28;45407;-60
2022/07/26 08:22:11;;;;;;;;;4.00;3.00;;;;;21.30;56.49;101222.97;5036399;28;45570;-60
2022/07/26 08:24:37;;;;;;;;;2.50;2.00;;;;;21.29;56.56;101223.97;5036458;28;45209;-60
2022/07/26 08:27:02;;;;;;;;;2.00;2.00;;;;;21.34;56.32;101229.81;5036003;28;45216;-59
2022/07/26 08:29:28;;;;;;;;;3.33;3.00;;;;;21.34;55.87;101216.28;5034693;28;45260;-60
2022/07/26 08:31:53;;;;;;;;;2.00;2.00;;;;;21.39;55.64;101227.56;5035859;28;45315;-59
2022/07/26 08:34:20;;;;;;;;;2.00;2.00;;;;;21.40;55.94;101229.25;5035747;28;46081;-59
2022/07/26 08:36:46;;;;;;;;;2.00;2.00;;;;;21.46;55.85;101223.25;5036415;28;45618;-60
2022/07/26 08:39:11;;;;;;;;;5.67;4.00;;;;;21.54;55.52;101230.69;5036003;28;45445;-61
2022/07/26 08:41:39;;;;;;;;;2.00;2.00;;;;;21.60;55.11;101225.56;5035363;28;45590;-61
2022/07/26 08:44:10;;;;;;;;;5.00;3.00;;;;;21.62;55.78;101237.13;5039066;28;46033;-58
2022/07/26 08:46:37;;;;;;;;;2.00;2.00;;;;;21.72;55.71;101243.38;5039236;28;45725;-59
2022/07/26 08:49:06;;;;;;;;;2.00;2.00;;;;;21.80;54.76;101231.84;5039244;28;45297;-59
2022/07/26 08:51:32;;;;;;;;;5.00;4.00;;;;;21.84;54.93;101221.56;5039320;28;45354;-60
2022/07/26 08:53:59;;;;;;;;;5.00;3.50;;;;;21.99;54.53;101225.53;5048397;28;45343;-58
2022/07/26 08:56:25;;;;;;;;;3.00;3.00;;;;;22.04;54.56;101237.66;5059066;28;45798;-62
2022/07/26 08:58:50;;;;;;;;;2.00;2.00;;;;;22.02;54.54;101239.69;5045522;28;45392;-62
2022/07/26 09:01:16;;;;;;;;;3.33;3.33;;;;;21.99;54.45;101241.78;5039375;28;45435;-61
2022/07/26 09:03:43;;;;;;;;;3.00;3.00;;;;;21.96;54.53;101244.78;5070983;27;45549;-60
2022/07/26 09:06:29;;;;;;;;;3.00;3.00;;;;;21.92;54.06;101240.69;5038456;27;45520;-59
2022/07/26 09:09:09;;;;;;;;;4.00;3.00;;;;;21.96;53.77;101242.94;5038851;28;45319;-60
2022/07/26 09:11:35;;;;;;;;;4.00;4.00;;;;;22.03;53.60;101243.22;5039060;28;45487;-61
2022/07/26 09:14:05;;;;;;;;;4.75;4.00;;;;;22.04;53.31;101250.34;5039088;28;45405;-60
2022/07/26 09:16:31;;;;;;;;;4.75;4.25;;;;;22.04;53.54;101247.66;5039112;28;45453;-60
2022/07/26 09:19:18;;;;;;;;;2.00;2.00;;;;;22.04;53.07;101256.63;5039245;28;45327;-61
2022/07/26 09:21:45;;;;;;;;;2.75;2.75;;;;;21.95;52.71;101240.38;5039038;28;45226;-60
2022/07/26 09:24:11;;;;;;;;;4.00;3.50;;;;;21.98;53.66;101256.34;5038535;28;46233;-60
2022/07/26 09:26:36;;;;;;;;;3.00;3.00;;;;;22.06;53.05;101253.81;5070669;28;45393;-61
2022/07/26 09:29:05;;;;;;;;;4.00;3.00;;;;;22.01;53.49;101254.22;5038499;28;45326;-60
2022/07/26 09:31:31;;;;;;;;;4.00;4.00;;;;;22.01;53.77;101250.66;5070677;28;45602;-61
2022/07/26 09:33:58;;;;;;;;;4.00;3.00;;;;;21.96;53.90;101237.53;5040967;28;45921;-59
2022/07/26 09:36:25;;;;;;;;;2.75;2.75;;;;;22.15;53.37;101255.66;5058387;28;45260;-59
2022/07/26 09:38:53;;;;;;;;;3.00;3.00;;;;;22.04;52.61;101255.78;5058695;27;45267;-59
2022/07/26 09:41:27;;;;;;;;;5.00;3.33;;;;;21.96;52.42;101269.16;5057877;28;45907;-61
2022/07/26 09:43:55;;;;;;;;;6.25;3.25;;;;;22.08;52.48;101265.34;5058323;27;46099;-59
2022/07/26 09:46:24;;;;;;;;;4.00;2.50;;;;;22.15;52.19;101257.50;5070594;27;45499;-59
2022/07/26 09:48:51;;;;;;;;;16.00;16.00;;;;;22.16;52.37;101257.38;5053221;28;45362;-60
2022/07/26 09:51:37;;;;;;;;;5.00;2.00;;;;;22.18;52.72;101260.78;5037414;28;45454;-59
2022/07/26 09:54:03;;;;;;;;;3.75;2.25;;;;;22.27;52.15;101265.34;5049506;28;45533;-60
2022/07/26 09:56:50;;;;;;;;;9.33;6.33;;;;;22.31;52.14;101263.19;5058116;28;45780;-58
2022/07/26 09:59:21;;;;;;;;;5.00;3.00;;;;;22.43;51.49;101267.44;5047219;28;45430;-60
2022/07/26 10:01:48;;;;;;;;;3.33;3.33;;;;;22.47;50.19;101262.56;5037278;28;45483;-59
2022/07/26 10:04:15;;;;;;;;;4.00;2.33;;;;;22.50;50.12;101273.13;5037942;28;45427;-59
2022/07/26 10:06:41;;;;;;;;;2.75;2.75;;;;;22.54;51.01;101272.69;5038127;28;45443;-59
2022/07/26 10:09:07;;;;;;;;;4.00;2.00;;;;;22.68;50.82;101260.53;5036702;28;45423;-59
2022/07/26 10:11:49;;;;;;;;;3.25;3.00;;;;;22.77;49.57;101259.59;5038123;28;45604;-62
2022/07/26 10:14:37;;;;;;;;;2.25;2.25;;;;;22.82;49.10;101268.16;5037779;28;45985;-61
2022/07/26 10:17:25;;;;;;;;;2.00;2.00;;;;;22.91;49.03;101267.28;5037626;28;45304;-61
2022/07/26 10:19:54;;;;;;;;;4.00;4.00;;;;;23.04;49.17;101269.66;5037930;28;45374;-60
2022/07/26 10:22:29;;;;;;;;;3.75;3.25;;;;;23.19;48.76;101270.03;5037944;28;45461;-60
2022/07/26 10:24:55;;;;;;;;;2.50;2.50;;;;;23.20;48.44;101260.88;5037681;28;46154;-61
2022/07/26 10:27:40;;;;;;;;;2.50;1.25;;;;;23.40;48.27;101262.47;5038706;28;45876;-60
2022/07/26 10:30:18;;;;;;;;;1.25;1.25;;;;;23.54;47.37;101270.06;5059864;28;45486;-59
2022/07/26 10:32:55;;;;;;;;;2.50;2.00;;;;;23.63;45.93;101267.50;5037696;27;45112;-60
2022/07/26 10:35:33;;;;;;;;;3.00;1.50;;;;;23.69;45.58;101275.84;5037735;28;45260;-61
2022/07/26 10:38:03;;;;;;;;;1.00;1.00;;;;;23.66;44.70;101268.03;5037353;28;45397;-61
2022/07/26 10:40:29;;;;;;;;;1.75;1.75;;;;;23.67;43.88;101268.88;5037454;28;45349;-61
2022/07/26 10:43:07;;;;;;;;;5.00;3.00;;;;;23.76;44.14;101265.25;5048650;28;45661;-61
2022/07/26 10:45:33;;;;;;;;;4.50;4.25;;;;;23.78;44.02;101265.94;5057456;28;45448;-60
2022/07/26 10:48:17;;;;;;;;;1.00;1.00;;;;;23.85;44.54;101261.59;5072826;27;45575;-59
2022/07/26 10:50:46;;;;;;;;;3.75;3.25;;;;;23.81;43.91;101255.59;5056097;28;45401;-60
2022/07/26 10:53:23;;;;;;;;;3.00;3.00;;;;;23.83;42.68;101260.91;5057935;28;45414;-60
2022/07/26 10:55:54;;;;;;;;;2.50;2.50;;;;;23.90;42.90;101269.28;5038025;28;45247;-60
2022/07/26 10:58:21;;;;;;;;;3.50;2.00;;;;;23.93;42.25;101267.09;5037855;28;45273;-62
2022/07/26 11:01:03;;;;;;;;;1.00;1.00;;;;;23.90;44.97;101267.41;5037512;28;45480;-58
2022/07/26 11:03:41;;;;;;;;;2.00;2.00;;;;;24.07;43.19;101261.09;5037379;28;45400;-60
2022/07/26 11:06:17;;;;;;;;;2.25;2.00;;;;;24.20;43.97;101251.69;5038809;27;45527;-59
2022/07/26 11:08:46;;;;;;;;;4.00;4.00;;;;;24.33;43.12;101258.44;5035567;28;45298;-60
2022/07/26 11:11:12;;;;;;;;;3.25;3.25;;;;;24.42;42.16;101267.50;5037109;28;45472;-59
2022/07/26 11:13:39;;;;;;;;;3.50;1.75;;;;;24.35;41.87;101263.72;5052661;28;45394;-58
2022/07/26 11:16:08;;;;;;;;;3.00;3.00;;;;;24.42;41.83;101260.22;5039126;28;47146;-63
2022/07/26 11:18:35;;;;;;;;;4.75;2.25;;;;;24.45;41.78;101260.91;5049183;28;45454;-60
2022/07/26 11:21:15;;;;;;;;;1.25;1.25;;;;;24.42;42.00;101252.06;5037205;28;45383;-61
2022/07/26 11:23:45;;;;;;;;;1.50;1.50;;;;;24.59;41.83;101246.72;5037049;28;45587;-58
2022/07/26 11:26:20;;;;;;;;;2.00;2.00;;;;;24.64;40.96;101250.66;5036388;28;46192;-61